To NAV CANADA Home Page Login to a new session Search on AWWS site Feedback and Comments Disclaimer Vers la page française équivalente Tips FAQ What's new on the site To the Forecasts and Observations / NOTAM section To "File a Flight Plan" website Publications and other links Update of the User's profile FIC Telephone Numbers My Weather Data Folder Route Weather Data Regional Weather Data Local Weather Data To the Forecasts and Observations / NOTAM section
Request Generated 07/25/2016 at 02:26:04 UTC . Weather information available at that time is displayed.

METAR/TAF

HAY RIVER/MERLYN CARTER AIRPORT/NT    

METAR CYHY 250200Z 36003KT 320V070 15SM SCT016 OVC042 12/10 A2978 RMK
CF4SC4 SLP091=
SPECI CYHY 250140Z 34004KT 310V040 15SM SCT016 OVC042 12/10 A2977 RMK
CF4SC4 SLP089=
METAR CYHY 250100Z 01003KT 320V060 12SM -RA BKN018 OVC030 12/10 A2976
RMK CF5SC3 SLP085=
SPECI CYHY 250053Z 01004KT 310V050 12SM -RA BKN016 OVC030 12/10 A2976
RMK CF5SC3 SLP085=
METAR CYHY 250000Z 05005KT 300V100 12SM BR SCT015 OVC035 12/10 A2974
RMK SC3SC5 SLP078=

TAF CYHY 242338Z 2500/2512 04005KT P6SM OVC030 TEMPO 2500/2506 2SM
-RA BR BKN008 OVC020 PROB40 2500/2506 VRB15G25KT 6SM TSRA BR
BKN012CB
FM250600 32008KT P6SM BKN040 PROB40 2510/2512 5SM BR BKN005
RMK NXT FCST BY 250600Z=
Your time UTC time
Weather data provided by Environment Canada and NAV CANADA